Grand Canyon Natl Park, Arizona
Current Conditions -  °F | °C
As of 12:54 PM on Saturday 25 Oct 2014 (Local Time) from KGCN Reporting Station
Scattered Clouds Scattered Clouds  
Wind Chill: 71°   Ceiling: Unl
Heat Index: 71°   Visibility: 10mi
Dew Point: 41°   Wind: 15mph
Humidity: 34%   Direction: 230°SW
Pressure: 30.3"   Gusts: 26mph
Location:  36.2°N, 112.07°W
Report Text: KGCN 251954Z 23013G23KT 10SM SCT070 22/05 A3030 RMK AO2 PK WND 21028/1920 SLP200 T02170050
Loading
Personal Weather Stations






























Interactive Weather Map New forecast layout! Learn more

10-Day Weather Forecast

Advertisements
Track Severe Weather on mobile